Rudyard, Michigan
Current Conditions -  °F | °C
As of 2:15 PM on Friday 21 Nov 2014 (Local Time) from KCIU Reporting Station
Overcast Overcast  
Wind Chill: 15°   Ceiling: 2900
Heat Index: 25°   Visibility: 9mi
Dew Point: 19°   Wind: 10mph
Humidity: 80%   Direction: 220°SW
Pressure: 30.23"   Gusts: 17mph
Location:  46.23°N, 84.6°W
Report Text: KCIU 211915Z AUTO 22009G15KT 9SM OVC029 M04/M07 A3023 RMK AO1
Loading
Personal Weather Stations






























Interactive Weather Map New forecast layout! Learn more

10-Day Weather Forecast

Advertisements
Track Severe Weather on mobile